KSDY/SDY METAR and TAF weather

Enter ICAO airport designator
Station Type Date Time Source
KSDY METAR 2019/02/17 15:46 UTC NOAA

KSDY 171546Z AUTO 35007KT 5SM -SN BR FEW026 SCT032 OVC075 M14/M16 A3019 RMK AO2 P0000 FZRANO


Station Type Date Time Source
KSDY Decoded METAR 2019/02/17 15:46 UTC NOAA

Sidney-Richland, MT, United States (KSDY) 47-42N 104-12W
Feb 17, 2019 - 10:46 AM EST / 2019.02.17 1546 UTC
Wind: from the N (350 degrees) at 8 MPH (7 KT):0
Visibility: 5 mile(s):0
Sky conditions: overcast
Weather: light snow; mist
Precipitation last hour: A trace
Temperature: 6 F (-14 C)
Windchill: -7 F (-22 C):2
Dew Point: 3 F (-16 C)
Relative Humidity: 84%
Pressure (altimeter): 30.19 in. Hg (1022 hPa)
ob: KSDY 171546Z AUTO 35007KT 5SM -SN BR FEW026 SCT032 OVC075 M14/M16 A3019 RMK AO2 P0000 FZRANO
cycle: 16

Station Type Date Time Source
KSDY TAF 2019/02/17 14:30 UTC NOAA

TAF
AMD KSDY 171428Z 1714/1812 33009KT 2SM -SN SCT015 OVC028
FM180600 VRB04KT P6SM VCSH SCT020 BKN035


Example: see airport list